sensor_id;sensor_type;location;lat;lon;timestamp;temperature;humidity
77052;SHT30;65980;44.898;8.602;2023-05-14T00:01:05;14.90;76.59
77052;SHT30;65980;44.898;8.602;2023-05-14T00:04:11;15.00;76.15
77052;SHT30;65980;44.898;8.602;2023-05-14T00:07:15;14.80;77.09
77052;SHT30;65980;44.898;8.602;2023-05-14T00:10:21;14.71;77.52
77052;SHT30;65980;44.898;8.602;2023-05-14T00:13:25;14.91;76.68
77052;SHT30;65980;44.898;8.602;2023-05-14T00:16:28;15.08;76.20
77052;SHT30;65980;44.898;8.602;2023-05-14T00:19:33;14.87;76.93
77052;SHT30;65980;44.898;8.602;2023-05-14T00:22:37;14.89;77.14
77052;SHT30;65980;44.898;8.602;2023-05-14T00:25:42;15.08;76.73
77052;SHT30;65980;44.898;8.602;2023-05-14T00:28:45;14.65;78.22
77052;SHT30;65980;44.898;8.602;2023-05-14T00:31:50;14.93;76.99
77052;SHT30;65980;44.898;8.602;2023-05-14T00:34:54;14.94;76.82
77052;SHT30;65980;44.898;8.602;2023-05-14T00:37:58;15.07;76.67
77052;SHT30;65980;44.898;8.602;2023-05-14T00:41:02;14.56;78.50
77052;SHT30;65980;44.898;8.602;2023-05-14T00:44:06;14.77;77.74
77052;SHT30;65980;44.898;8.602;2023-05-14T00:47:10;14.71;77.85
77052;SHT30;65980;44.898;8.602;2023-05-14T00:50:17;14.84;77.98
77052;SHT30;65980;44.898;8.602;2023-05-14T00:53:22;14.51;79.26
77052;SHT30;65980;44.898;8.602;2023-05-14T00:56:27;14.65;78.73
77052;SHT30;65980;44.898;8.602;2023-05-14T00:59:32;14.41;79.85
77052;SHT30;65980;44.898;8.602;2023-05-14T01:02:37;14.55;79.57
77052;SHT30;65980;44.898;8.602;2023-05-14T01:15:07;14.80;79.65
77052;SHT30;65980;44.898;8.602;2023-05-14T01:18:16;14.87;79.39
77052;SHT30;65980;44.898;8.602;2023-05-14T01:21:37;14.59;80.77
77052;SHT30;65980;44.898;8.602;2023-05-14T01:24:42;14.83;79.82
77052;SHT30;65980;44.898;8.602;2023-05-14T01:31:00;14.91;79.60
77052;SHT30;65980;44.898;8.602;2023-05-14T01:34:05;14.62;80.71
77052;SHT30;65980;44.898;8.602;2023-05-14T01:37:11;14.66;80.38
77052;SHT30;65980;44.898;8.602;2023-05-14T01:40:16;14.90;79.82
77052;SHT30;65980;44.898;8.602;2023-05-14T01:43:20;15.00;79.16
77052;SHT30;65980;44.898;8.602;2023-05-14T01:46:25;15.00;79.34
77052;SHT30;65980;44.898;8.602;2023-05-14T01:49:32;14.87;80.30
77052;SHT30;65980;44.898;8.602;2023-05-14T01:52:36;14.77;80.13
77052;SHT30;65980;44.898;8.602;2023-05-14T01:55:40;14.76;80.66
77052;SHT30;65980;44.898;8.602;2023-05-14T01:58:45;14.58;81.40
77052;SHT30;65980;44.898;8.602;2023-05-14T02:01:50;14.76;80.55
77052;SHT30;65980;44.898;8.602;2023-05-14T02:04:53;14.83;80.63
77052;SHT30;65980;44.898;8.602;2023-05-14T02:07:59;14.83;80.20
77052;SHT30;65980;44.898;8.602;2023-05-14T02:11:03;14.77;80.15
77052;SHT30;65980;44.898;8.602;2023-05-14T02:14:08;14.54;80.30
77052;SHT30;65980;44.898;8.602;2023-05-14T02:17:12;14.65;80.01
77052;SHT30;65980;44.898;8.602;2023-05-14T02:20:20;14.31;81.17
77052;SHT30;65980;44.898;8.602;2023-05-14T02:23:24;13.91;82.93
77052;SHT30;65980;44.898;8.602;2023-05-14T02:26:27;14.20;82.24
77052;SHT30;65980;44.898;8.602;2023-05-14T02:29:31;14.48;81.84
77052;SHT30;65980;44.898;8.602;2023-05-14T02:32:35;14.59;81.17
77052;SHT30;65980;44.898;8.602;2023-05-14T02:35:40;14.63;81.35
77052;SHT30;65980;44.898;8.602;2023-05-14T02:38:44;14.65;81.01
77052;SHT30;65980;44.898;8.602;2023-05-14T02:41:48;14.66;80.76
77052;SHT30;65980;44.898;8.602;2023-05-14T02:44:51;14.63;80.80
77052;SHT30;65980;44.898;8.602;2023-05-14T02:47:56;14.61;81.38
77052;SHT30;65980;44.898;8.602;2023-05-14T02:51:00;14.34;82.50
77052;SHT30;65980;44.898;8.602;2023-05-14T02:54:04;14.35;82.24
77052;SHT30;65980;44.898;8.602;2023-05-14T02:57:08;14.46;81.87
77052;SHT30;65980;44.898;8.602;2023-05-14T03:00:11;14.51;81.68
77052;SHT30;65980;44.898;8.602;2023-05-14T03:03:17;14.55;81.34
77052;SHT30;65980;44.898;8.602;2023-05-14T03:06:22;14.65;81.24
77052;SHT30;65980;44.898;8.602;2023-05-14T03:09:25;14.28;81.53
77052;SHT30;65980;44.898;8.602;2023-05-14T03:12:29;14.29;81.64
77052;SHT30;65980;44.898;8.602;2023-05-14T03:15:34;14.06;82.66
77052;SHT30;65980;44.898;8.602;2023-05-14T03:18:39;14.06;82.68
77052;SHT30;65980;44.898;8.602;2023-05-14T03:21:46;14.13;82.81
77052;SHT30;65980;44.898;8.602;2023-05-14T03:24:50;14.00;83.37
77052;SHT30;65980;44.898;8.602;2023-05-14T03:27:54;13.94;83.08
77052;SHT30;65980;44.898;8.602;2023-05-14T03:30:57;13.74;83.22
77052;SHT30;65980;44.898;8.602;2023-05-14T03:34:01;13.74;82.74
77052;SHT30;65980;44.898;8.602;2023-05-14T03:37:06;13.67;83.51
77052;SHT30;65980;44.898;8.602;2023-05-14T03:40:09;13.76;83.09
77052;SHT30;65980;44.898;8.602;2023-05-14T03:43:13;13.96;82.41
77052;SHT30;65980;44.898;8.602;2023-05-14T03:46:20;13.83;82.36
77052;SHT30;65980;44.898;8.602;2023-05-14T03:49:24;13.72;82.55
77052;SHT30;65980;44.898;8.602;2023-05-14T03:52:30;13.74;82.93
77052;SHT30;65980;44.898;8.602;2023-05-14T03:55:34;14.04;81.96
77052;SHT30;65980;44.898;8.602;2023-05-14T03:58:40;13.91;82.42
77052;SHT30;65980;44.898;8.602;2023-05-14T04:01:45;14.18;81.90
77052;SHT30;65980;44.898;8.602;2023-05-14T04:04:48;14.13;82.20
77052;SHT30;65980;44.898;8.602;2023-05-14T04:07:56;14.11;82.27
77052;SHT30;65980;44.898;8.602;2023-05-14T04:11:00;14.21;80.76
77052;SHT30;65980;44.898;8.602;2023-05-14T04:14:05;14.31;81.46
77052;SHT30;65980;44.898;8.602;2023-05-14T04:17:10;13.90;83.23
77052;SHT30;65980;44.898;8.602;2023-05-14T04:20:14;13.54;84.82
77052;SHT30;65980;44.898;8.602;2023-05-14T04:23:17;13.35;86.22
77052;SHT30;65980;44.898;8.602;2023-05-14T04:26:22;13.55;85.63
77052;SHT30;65980;44.898;8.602;2023-05-14T04:29:26;13.52;86.04
77052;SHT30;65980;44.898;8.602;2023-05-14T04:32:30;13.59;85.86
77052;SHT30;65980;44.898;8.602;2023-05-14T04:35:33;13.45;86.32
77052;SHT30;65980;44.898;8.602;2023-05-14T04:38:38;13.45;86.04
77052;SHT30;65980;44.898;8.602;2023-05-14T04:41:43;13.41;86.13
77052;SHT30;65980;44.898;8.602;2023-05-14T04:44:47;13.44;86.07
77052;SHT30;65980;44.898;8.602;2023-05-14T04:47:52;13.54;85.57
77052;SHT30;65980;44.898;8.602;2023-05-14T04:50:56;13.61;85.03
77052;SHT30;65980;44.898;8.602;2023-05-14T04:54:00;13.52;85.00
77052;SHT30;65980;44.898;8.602;2023-05-14T04:57:08;13.52;85.01
77052;SHT30;65980;44.898;8.602;2023-05-14T05:00:13;13.35;84.70
77052;SHT30;65980;44.898;8.602;2023-05-14T05:03:21;13.51;84.94
77052;SHT30;65980;44.898;8.602;2023-05-14T05:06:26;13.31;84.60
77052;SHT30;65980;44.898;8.602;2023-05-14T05:09:29;13.42;84.91
77052;SHT30;65980;44.898;8.602;2023-05-14T05:12:33;13.59;84.49
77052;SHT30;65980;44.898;8.602;2023-05-14T05:15:39;13.69;84.03
77052;SHT30;65980;44.898;8.602;2023-05-14T05:18:44;13.82;83.71
77052;SHT30;65980;44.898;8.602;2023-05-14T05:21:49;13.82;83.93
77052;SHT30;65980;44.898;8.602;2023-05-14T05:24:55;13.62;84.34
77052;SHT30;65980;44.898;8.602;2023-05-14T05:27:58;13.84;84.13
77052;SHT30;65980;44.898;8.602;2023-05-14T05:31:02;13.97;83.89
77052;SHT30;65980;44.898;8.602;2023-05-14T05:34:06;13.96;83.61
77052;SHT30;65980;44.898;8.602;2023-05-14T05:37:10;13.65;84.09
77052;SHT30;65980;44.898;8.602;2023-05-14T05:40:17;13.91;83.25
77052;SHT30;65980;44.898;8.602;2023-05-14T05:43:22;13.82;84.14
77052;SHT30;65980;44.898;8.602;2023-05-14T05:46:25;13.69;84.60
77052;SHT30;65980;44.898;8.602;2023-05-14T05:49:29;13.44;85.67
77052;SHT30;65980;44.898;8.602;2023-05-14T05:52:34;13.46;85.17
77052;SHT30;65980;44.898;8.602;2023-05-14T05:55:37;13.59;85.54
77052;SHT30;65980;44.898;8.602;2023-05-14T05:58:41;13.56;85.15
77052;SHT30;65980;44.898;8.602;2023-05-14T06:01:45;13.61;85.23
77052;SHT30;65980;44.898;8.602;2023-05-14T06:04:51;13.55;85.65
77052;SHT30;65980;44.898;8.602;2023-05-14T06:07:55;13.52;85.95
77052;SHT30;65980;44.898;8.602;2023-05-14T06:11:00;13.46;86.23
77052;SHT30;65980;44.898;8.602;2023-05-14T06:14:03;13.44;86.45
77052;SHT30;65980;44.898;8.602;2023-05-14T06:17:07;13.55;85.86
77052;SHT30;65980;44.898;8.602;2023-05-14T06:20:11;13.48;86.48
77052;SHT30;65980;44.898;8.602;2023-05-14T06:23:16;13.59;85.35
77052;SHT30;65980;44.898;8.602;2023-05-14T06:26:20;13.61;85.59
77052;SHT30;65980;44.898;8.602;2023-05-14T06:29:24;13.76;85.24
77052;SHT30;65980;44.898;8.602;2023-05-14T06:32:28;13.66;84.94
77052;SHT30;65980;44.898;8.602;2023-05-14T06:35:32;13.73;84.70
77052;SHT30;65980;44.898;8.602;2023-05-14T06:38:37;13.74;84.49
77052;SHT30;65980;44.898;8.602;2023-05-14T06:41:41;13.74;85.21
77052;SHT30;65980;44.898;8.602;2023-05-14T06:44:52;13.74;85.00
77052;SHT30;65980;44.898;8.602;2023-05-14T06:47:56;13.65;84.44
77052;SHT30;65980;44.898;8.602;2023-05-14T06:51:00;13.67;85.54
77052;SHT30;65980;44.898;8.602;2023-05-14T06:54:05;13.76;85.34
77052;SHT30;65980;44.898;8.602;2023-05-14T06:57:09;13.84;85.79
77052;SHT30;65980;44.898;8.602;2023-05-14T07:00:13;13.74;85.58
77052;SHT30;65980;44.898;8.602;2023-05-14T07:03:18;13.86;85.94
77052;SHT30;65980;44.898;8.602;2023-05-14T07:06:22;13.91;85.22
77052;SHT30;65980;44.898;8.602;2023-05-14T07:09:27;14.16;84.37
77052;SHT30;65980;44.898;8.602;2023-05-14T07:12:30;14.09;84.33
77052;SHT30;65980;44.898;8.602;2023-05-14T07:15:34;14.31;84.41
77052;SHT30;65980;44.898;8.602;2023-05-14T07:18:38;14.31;83.80
77052;SHT30;65980;44.898;8.602;2023-05-14T07:21:42;14.66;83.37
77052;SHT30;65980;44.898;8.602;2023-05-14T07:24:46;14.90;81.73
77052;SHT30;65980;44.898;8.602;2023-05-14T07:27:50;15.06;81.22
77052;SHT30;65980;44.898;8.602;2023-05-14T07:30:55;15.03;81.32
77052;SHT30;65980;44.898;8.602;2023-05-14T07:33:59;14.96;80.61
77052;SHT30;65980;44.898;8.602;2023-05-14T07:37:03;15.07;79.01
77052;SHT30;65980;44.898;8.602;2023-05-14T07:40:08;15.31;78.15
77052;SHT30;65980;44.898;8.602;2023-05-14T07:43:12;15.11;77.31
77052;SHT30;65980;44.898;8.602;2023-05-14T07:46:16;14.58;78.10
77052;SHT30;65980;44.898;8.602;2023-05-14T07:49:21;14.66;78.64
77052;SHT30;65980;44.898;8.602;2023-05-14T07:52:24;14.63;77.61
77052;SHT30;65980;44.898;8.602;2023-05-14T07:55:28;14.61;77.98
77052;SHT30;65980;44.898;8.602;2023-05-14T07:58:33;14.59;78.95
77052;SHT30;65980;44.898;8.602;2023-05-14T08:01:38;14.63;77.04
77052;SHT30;65980;44.898;8.602;2023-05-14T08:04:41;14.54;77.74
77052;SHT30;65980;44.898;8.602;2023-05-14T08:07:48;14.63;78.14
77052;SHT30;65980;44.898;8.602;2023-05-14T08:10:52;14.80;78.06
77052;SHT30;65980;44.898;8.602;2023-05-14T08:13:56;14.69;78.09
77052;SHT30;65980;44.898;8.602;2023-05-14T08:17:00;14.71;78.18
77052;SHT30;65980;44.898;8.602;2023-05-14T08:20:04;14.65;76.75
77052;SHT30;65980;44.898;8.602;2023-05-14T08:23:09;14.82;75.82
77052;SHT30;65980;44.898;8.602;2023-05-14T08:26:13;15.14;74.17
77052;SHT30;65980;44.898;8.602;2023-05-14T08:29:17;15.25;74.64
77052;SHT30;65980;44.898;8.602;2023-05-14T08:32:21;15.10;72.76
77052;SHT30;65980;44.898;8.602;2023-05-14T08:35:25;15.25;71.67
77052;SHT30;65980;44.898;8.602;2023-05-14T08:38:29;15.31;73.18
77052;SHT30;65980;44.898;8.602;2023-05-14T08:41:33;15.18;73.71
77052;SHT30;65980;44.898;8.602;2023-05-14T08:44:38;15.11;73.79
77052;SHT30;65980;44.898;8.602;2023-05-14T08:47:49;15.11;72.41
77052;SHT30;65980;44.898;8.602;2023-05-14T08:50:54;15.42;73.32
77052;SHT30;65980;44.898;8.602;2023-05-14T08:53:58;15.42;72.18
77052;SHT30;65980;44.898;8.602;2023-05-14T08:57:05;15.55;71.61
77052;SHT30;65980;44.898;8.602;2023-05-14T09:00:10;15.65;70.08
77052;SHT30;65980;44.898;8.602;2023-05-14T09:03:15;15.73;70.54
77052;SHT30;65980;44.898;8.602;2023-05-14T09:06:20;15.74;70.95
77052;SHT30;65980;44.898;8.602;2023-05-14T09:09:26;15.96;70.87
77052;SHT30;65980;44.898;8.602;2023-05-14T09:12:30;16.16;68.92
77052;SHT30;65980;44.898;8.602;2023-05-14T09:15:36;16.40;69.67
77052;SHT30;65980;44.898;8.602;2023-05-14T09:18:42;16.86;69.07
77052;SHT30;65980;44.898;8.602;2023-05-14T09:21:46;16.77;69.50
77052;SHT30;65980;44.898;8.602;2023-05-14T09:25:12;16.89;68.03
77052;SHT30;65980;44.898;8.602;2023-05-14T09:28:15;17.07;66.77
77052;SHT30;65980;44.898;8.602;2023-05-14T09:31:19;16.80;68.71
77052;SHT30;65980;44.898;8.602;2023-05-14T09:37:27;16.73;64.72
77052;SHT30;65980;44.898;8.602;2023-05-14T09:40:32;16.79;64.55
77052;SHT30;65980;44.898;8.602;2023-05-14T09:43:36;17.16;65.27
77052;SHT30;65980;44.898;8.602;2023-05-14T09:46:40;17.03;65.13
77052;SHT30;65980;44.898;8.602;2023-05-14T09:49:47;16.80;67.41
77052;SHT30;65980;44.898;8.602;2023-05-14T09:52:53;16.89;66.95
77052;SHT30;65980;44.898;8.602;2023-05-14T09:55:57;16.59;67.72
77052;SHT30;65980;44.898;8.602;2023-05-14T09:59:01;16.35;70.05
77052;SHT30;65980;44.898;8.602;2023-05-14T10:02:06;16.18;68.50
77052;SHT30;65980;44.898;8.602;2023-05-14T10:05:14;16.27;68.15
77052;SHT30;65980;44.898;8.602;2023-05-14T10:08:26;16.21;68.50
77052;SHT30;65980;44.898;8.602;2023-05-14T10:11:34;16.20;68.84
77052;SHT30;65980;44.898;8.602;2023-05-14T10:14:39;16.32;69.22
77052;SHT30;65980;44.898;8.602;2023-05-14T10:17:59;16.31;70.68
77052;SHT30;65980;44.898;8.602;2023-05-14T10:21:05;16.21;69.17
77052;SHT30;65980;44.898;8.602;2023-05-14T10:24:10;16.11;68.23
77052;SHT30;65980;44.898;8.602;2023-05-14T10:27:15;16.22;67.40
77052;SHT30;65980;44.898;8.602;2023-05-14T10:30:20;16.22;68.83
77052;SHT30;65980;44.898;8.602;2023-05-14T10:33:26;16.38;68.80
77052;SHT30;65980;44.898;8.602;2023-05-14T10:36:30;16.36;69.86
77052;SHT30;65980;44.898;8.602;2023-05-14T10:43:02;16.38;68.24
77052;SHT30;65980;44.898;8.602;2023-05-14T10:46:07;16.51;67.07
77052;SHT30;65980;44.898;8.602;2023-05-14T10:49:12;16.70;66.63
77052;SHT30;65980;44.898;8.602;2023-05-14T10:52:16;16.69;66.09
77052;SHT30;65980;44.898;8.602;2023-05-14T10:55:41;17.10;64.57
77052;SHT30;65980;44.898;8.602;2023-05-14T10:58:45;17.36;63.61
77052;SHT30;65980;44.898;8.602;2023-05-14T11:01:50;17.72;63.88
77052;SHT30;65980;44.898;8.602;2023-05-14T11:04:55;18.18;62.28
77052;SHT30;65980;44.898;8.602;2023-05-14T11:08:00;18.20;61.62
77052;SHT30;65980;44.898;8.602;2023-05-14T11:11:07;18.56;62.58
77052;SHT30;65980;44.898;8.602;2023-05-14T11:14:12;18.63;59.94
77052;SHT30;65980;44.898;8.602;2023-05-14T11:17:16;19.38;57.54
77052;SHT30;65980;44.898;8.602;2023-05-14T11:20:21;20.04;55.22
77052;SHT30;65980;44.898;8.602;2023-05-14T11:23:25;20.35;55.75
77052;SHT30;65980;44.898;8.602;2023-05-14T11:26:30;21.28;52.71
77052;SHT30;65980;44.898;8.602;2023-05-14T11:29:37;21.81;49.92
77052;SHT30;65980;44.898;8.602;2023-05-14T11:32:42;24.43;44.59
77052;SHT30;65980;44.898;8.602;2023-05-14T11:35:46;25.90;42.30
77052;SHT30;65980;44.898;8.602;2023-05-14T11:38:51;23.46;47.16
77052;SHT30;65980;44.898;8.602;2023-05-14T11:41:55;21.19;52.89
77052;SHT30;65980;44.898;8.602;2023-05-14T11:45:00;20.24;54.50
77052;SHT30;65980;44.898;8.602;2023-05-14T11:48:10;20.51;55.73
77052;SHT30;65980;44.898;8.602;2023-05-14T11:51:14;19.80;56.24
77052;SHT30;65980;44.898;8.602;2023-05-14T11:54:18;19.76;56.79
77052;SHT30;65980;44.898;8.602;2023-05-14T11:57:23;19.14;58.16
77052;SHT30;65980;44.898;8.602;2023-05-14T12:00:27;19.47;57.69
77052;SHT30;65980;44.898;8.602;2023-05-14T12:03:31;19.97;58.77
77052;SHT30;65980;44.898;8.602;2023-05-14T12:06:35;19.04;57.31
77052;SHT30;65980;44.898;8.602;2023-05-14T12:09:40;19.54;54.65
77052;SHT30;65980;44.898;8.602;2023-05-14T12:12:44;19.76;56.05
77052;SHT30;65980;44.898;8.602;2023-05-14T12:15:57;19.31;55.57
77052;SHT30;65980;44.898;8.602;2023-05-14T12:19:01;19.25;57.92
77052;SHT30;65980;44.898;8.602;2023-05-14T12:22:09;19.41;56.50
77052;SHT30;65980;44.898;8.602;2023-05-14T12:25:13;19.36;56.62
77052;SHT30;65980;44.898;8.602;2023-05-14T12:28:18;19.68;53.81
77052;SHT30;65980;44.898;8.602;2023-05-14T12:31:29;19.36;54.81
77052;SHT30;65980;44.898;8.602;2023-05-14T12:34:34;19.55;55.43
77052;SHT30;65980;44.898;8.602;2023-05-14T12:37:38;19.76;54.52
77052;SHT30;65980;44.898;8.602;2023-05-14T12:40:43;19.92;55.13
77052;SHT30;65980;44.898;8.602;2023-05-14T12:43:48;19.68;54.29
77052;SHT30;65980;44.898;8.602;2023-05-14T12:46:52;19.83;54.28
77052;SHT30;65980;44.898;8.602;2023-05-14T12:49:57;20.07;53.16
77052;SHT30;65980;44.898;8.602;2023-05-14T12:53:01;20.09;54.63
77052;SHT30;65980;44.898;8.602;2023-05-14T12:56:06;19.93;54.61
77052;SHT30;65980;44.898;8.602;2023-05-14T12:59:09;19.45;56.71
77052;SHT30;65980;44.898;8.602;2023-05-14T13:02:14;19.48;56.36
77052;SHT30;65980;44.898;8.602;2023-05-14T13:05:19;19.15;56.01
77052;SHT30;65980;44.898;8.602;2023-05-14T13:08:24;19.10;57.80
77052;SHT30;65980;44.898;8.602;2023-05-14T13:11:29;19.28;56.66
77052;SHT30;65980;44.898;8.602;2023-05-14T13:14:34;19.23;56.28
77052;SHT30;65980;44.898;8.602;2023-05-14T13:17:39;19.42;56.38
77052;SHT30;65980;44.898;8.602;2023-05-14T13:20:44;19.47;57.02
77052;SHT30;65980;44.898;8.602;2023-05-14T13:23:49;19.80;56.78
77052;SHT30;65980;44.898;8.602;2023-05-14T13:26:53;19.61;57.04
77052;SHT30;65980;44.898;8.602;2023-05-14T13:29:58;19.50;56.63
77052;SHT30;65980;44.898;8.602;2023-05-14T13:33:02;19.04;58.46
77052;SHT30;65980;44.898;8.602;2023-05-14T13:36:06;19.21;57.68
77052;SHT30;65980;44.898;8.602;2023-05-14T13:39:11;19.27;57.34
77052;SHT30;65980;44.898;8.602;2023-05-14T13:42:15;19.87;56.32
77052;SHT30;65980;44.898;8.602;2023-05-14T13:45:20;20.30;54.04
77052;SHT30;65980;44.898;8.602;2023-05-14T13:48:24;20.90;53.67
77052;SHT30;65980;44.898;8.602;2023-05-14T13:51:29;20.93;52.50
77052;SHT30;65980;44.898;8.602;2023-05-14T13:54:34;21.10;52.81
77052;SHT30;65980;44.898;8.602;2023-05-14T13:57:38;20.55;55.25
77052;SHT30;65980;44.898;8.602;2023-05-14T14:00:44;20.40;55.43
77052;SHT30;65980;44.898;8.602;2023-05-14T14:03:48;20.80;54.11
77052;SHT30;65980;44.898;8.602;2023-05-14T14:06:51;21.02;53.70
77052;SHT30;65980;44.898;8.602;2023-05-14T14:09:56;21.24;52.79
77052;SHT30;65980;44.898;8.602;2023-05-14T14:13:00;21.41;53.03
77052;SHT30;65980;44.898;8.602;2023-05-14T14:16:04;20.71;53.53
77052;SHT30;65980;44.898;8.602;2023-05-14T14:19:08;20.71;55.51
77052;SHT30;65980;44.898;8.602;2023-05-14T14:22:13;20.89;54.14
77052;SHT30;65980;44.898;8.602;2023-05-14T14:25:19;20.90;53.33
77052;SHT30;65980;44.898;8.602;2023-05-14T14:28:24;20.89;52.91
77052;SHT30;65980;44.898;8.602;2023-05-14T14:31:28;20.71;53.49
77052;SHT30;65980;44.898;8.602;2023-05-14T14:34:32;21.07;52.84
77052;SHT30;65980;44.898;8.602;2023-05-14T14:37:36;20.89;52.95
77052;SHT30;65980;44.898;8.602;2023-05-14T14:40:40;20.41;51.98
77052;SHT30;65980;44.898;8.602;2023-05-14T14:43:44;20.41;54.52
77052;SHT30;65980;44.898;8.602;2023-05-14T14:46:49;20.04;55.39
77052;SHT30;65980;44.898;8.602;2023-05-14T14:49:53;20.56;52.41
77052;SHT30;65980;44.898;8.602;2023-05-14T14:52:57;20.68;52.43
77052;SHT30;65980;44.898;8.602;2023-05-14T14:56:02;20.75;52.93
77052;SHT30;65980;44.898;8.602;2023-05-14T14:59:07;20.92;52.24
77052;SHT30;65980;44.898;8.602;2023-05-14T15:02:11;20.68;51.76
77052;SHT30;65980;44.898;8.602;2023-05-14T15:05:15;20.14;53.83
77052;SHT30;65980;44.898;8.602;2023-05-14T15:08:22;20.41;53.15
77052;SHT30;65980;44.898;8.602;2023-05-14T15:11:26;20.44;52.20
77052;SHT30;65980;44.898;8.602;2023-05-14T15:14:32;20.92;50.92
77052;SHT30;65980;44.898;8.602;2023-05-14T15:17:36;21.10;50.57
77052;SHT30;65980;44.898;8.602;2023-05-14T15:20:40;21.28;51.53
77052;SHT30;65980;44.898;8.602;2023-05-14T15:23:44;21.03;51.35
77052;SHT30;65980;44.898;8.602;2023-05-14T15:26:47;20.80;50.55
77052;SHT30;65980;44.898;8.602;2023-05-14T15:29:52;20.79;51.63
77052;SHT30;65980;44.898;8.602;2023-05-14T15:32:56;20.65;51.59
77052;SHT30;65980;44.898;8.602;2023-05-14T15:36:03;20.68;51.46
77052;SHT30;65980;44.898;8.602;2023-05-14T15:39:07;20.72;51.22
77052;SHT30;65980;44.898;8.602;2023-05-14T15:42:13;20.85;50.43
77052;SHT30;65980;44.898;8.602;2023-05-14T15:45:18;20.95;49.42
77052;SHT30;65980;44.898;8.602;2023-05-14T15:48:22;20.48;50.62
77052;SHT30;65980;44.898;8.602;2023-05-14T15:51:26;20.86;50.19
77052;SHT30;65980;44.898;8.602;2023-05-14T15:54:30;20.86;49.87
77052;SHT30;65980;44.898;8.602;2023-05-14T15:57:35;20.87;49.21
77052;SHT30;65980;44.898;8.602;2023-05-14T16:00:38;20.93;50.39
77052;SHT30;65980;44.898;8.602;2023-05-14T16:03:43;20.80;48.96
77052;SHT30;65980;44.898;8.602;2023-05-14T16:06:46;20.95;48.36
77052;SHT30;65980;44.898;8.602;2023-05-14T16:09:51;20.92;48.47
77052;SHT30;65980;44.898;8.602;2023-05-14T16:12:54;20.51;49.42
77052;SHT30;65980;44.898;8.602;2023-05-14T16:16:00;20.93;49.33
77052;SHT30;65980;44.898;8.602;2023-05-14T16:19:05;20.93;47.86
77052;SHT30;65980;44.898;8.602;2023-05-14T16:22:10;23.24;43.11
77052;SHT30;65980;44.898;8.602;2023-05-14T16:25:14;24.51;39.66
77052;SHT30;65980;44.898;8.602;2023-05-14T16:28:17;25.48;38.63
77052;SHT30;65980;44.898;8.602;2023-05-14T16:31:22;24.19;39.34
77052;SHT30;65980;44.898;8.602;2023-05-14T16:34:25;23.30;41.99
77052;SHT30;65980;44.898;8.602;2023-05-14T16:37:30;22.40;43.24
77052;SHT30;65980;44.898;8.602;2023-05-14T16:40:34;22.45;43.09
77052;SHT30;65980;44.898;8.602;2023-05-14T16:43:37;21.85;44.12
77052;SHT30;65980;44.898;8.602;2023-05-14T16:46:42;21.03;46.03
77052;SHT30;65980;44.898;8.602;2023-05-14T16:49:46;21.20;45.71
77052;SHT30;65980;44.898;8.602;2023-05-14T16:52:50;21.06;46.36
77052;SHT30;65980;44.898;8.602;2023-05-14T16:55:53;21.02;46.11
77052;SHT30;65980;44.898;8.602;2023-05-14T16:58:58;21.10;45.79
77052;SHT30;65980;44.898;8.602;2023-05-14T17:02:01;21.30;44.73
77052;SHT30;65980;44.898;8.602;2023-05-14T17:05:06;21.24;45.01
77052;SHT30;65980;44.898;8.602;2023-05-14T17:08:11;21.03;45.44
77052;SHT30;65980;44.898;8.602;2023-05-14T17:11:14;20.87;45.89
77052;SHT30;65980;44.898;8.602;2023-05-14T17:14:19;20.83;46.35
77052;SHT30;65980;44.898;8.602;2023-05-14T17:17:22;20.69;46.26
77052;SHT30;65980;44.898;8.602;2023-05-14T17:20:27;20.34;47.71
77052;SHT30;65980;44.898;8.602;2023-05-14T17:23:30;20.45;46.14
77052;SHT30;65980;44.898;8.602;2023-05-14T17:26:35;20.45;45.77
77052;SHT30;65980;44.898;8.602;2023-05-14T17:29:39;20.40;46.02
77052;SHT30;65980;44.898;8.602;2023-05-14T17:32:44;20.38;46.01
77052;SHT30;65980;44.898;8.602;2023-05-14T17:35:48;20.34;46.79
77052;SHT30;65980;44.898;8.602;2023-05-14T17:38:53;20.28;47.97
77052;SHT30;65980;44.898;8.602;2023-05-14T17:41:58;20.21;48.93
77052;SHT30;65980;44.898;8.602;2023-05-14T17:45:02;20.23;48.20
77052;SHT30;65980;44.898;8.602;2023-05-14T17:48:06;20.21;49.14
77052;SHT30;65980;44.898;8.602;2023-05-14T17:51:09;20.25;48.94
77052;SHT30;65980;44.898;8.602;2023-05-14T17:54:14;20.14;48.86
77052;SHT30;65980;44.898;8.602;2023-05-14T17:57:19;20.09;48.62
77052;SHT30;65980;44.898;8.602;2023-05-14T18:00:23;20.04;49.83
77052;SHT30;65980;44.898;8.602;2023-05-14T18:03:27;20.00;48.96
77052;SHT30;65980;44.898;8.602;2023-05-14T18:06:32;19.93;49.64
77052;SHT30;65980;44.898;8.602;2023-05-14T18:09:36;19.92;49.84
77052;SHT30;65980;44.898;8.602;2023-05-14T18:12:39;19.82;50.02
77052;SHT30;65980;44.898;8.602;2023-05-14T18:15:43;19.80;49.28
77052;SHT30;65980;44.898;8.602;2023-05-14T18:18:47;19.75;49.95
77052;SHT30;65980;44.898;8.602;2023-05-14T18:21:52;19.73;50.55
77052;SHT30;65980;44.898;8.602;2023-05-14T18:24:58;19.69;51.09
77052;SHT30;65980;44.898;8.602;2023-05-14T18:28:01;19.68;51.65
77052;SHT30;65980;44.898;8.602;2023-05-14T18:31:06;19.66;51.46
77052;SHT30;65980;44.898;8.602;2023-05-14T18:34:09;19.68;50.92
77052;SHT30;65980;44.898;8.602;2023-05-14T18:37:14;19.69;50.58
77052;SHT30;65980;44.898;8.602;2023-05-14T18:40:18;19.61;50.98
77052;SHT30;65980;44.898;8.602;2023-05-14T18:43:22;19.55;51.29
77052;SHT30;65980;44.898;8.602;2023-05-14T18:46:27;19.42;52.79
77052;SHT30;65980;44.898;8.602;2023-05-14T18:49:31;19.36;53.27
77052;SHT30;65980;44.898;8.602;2023-05-14T18:52:35;19.25;55.39
77052;SHT30;65980;44.898;8.602;2023-05-14T18:55:38;19.18;57.42
77052;SHT30;65980;44.898;8.602;2023-05-14T18:58:43;19.02;59.24
77052;SHT30;65980;44.898;8.602;2023-05-14T19:01:47;18.82;60.63
77052;SHT30;65980;44.898;8.602;2023-05-14T19:04:50;18.75;60.52
77052;SHT30;65980;44.898;8.602;2023-05-14T19:07:55;18.51;61.53
77052;SHT30;65980;44.898;8.602;2023-05-14T19:10:58;18.37;62.78
77052;SHT30;65980;44.898;8.602;2023-05-14T19:14:03;18.33;63.52
77052;SHT30;65980;44.898;8.602;2023-05-14T19:17:08;18.10;64.42
77052;SHT30;65980;44.898;8.602;2023-05-14T19:20:12;17.78;65.39
77052;SHT30;65980;44.898;8.602;2023-05-14T19:23:16;17.90;64.87
77052;SHT30;65980;44.898;8.602;2023-05-14T19:26:20;17.85;63.34
77052;SHT30;65980;44.898;8.602;2023-05-14T19:29:25;17.78;64.04
77052;SHT30;65980;44.898;8.602;2023-05-14T19:32:29;17.61;64.28
77052;SHT30;65980;44.898;8.602;2023-05-14T19:35:32;17.58;64.10
77052;SHT30;65980;44.898;8.602;2023-05-14T19:38:37;17.41;64.87
77052;SHT30;65980;44.898;8.602;2023-05-14T19:41:41;17.42;65.29
77052;SHT30;65980;44.898;8.602;2023-05-14T19:44:44;17.25;66.07